sensor_id;sensor_type;location;lat;lon;timestamp;P1;durP1;ratioP1;P2;durP2;ratioP2
25653;SDS011;13511;48.622;9.230;2023-05-07T00:00:42;8.02;;;7.50;;
25653;SDS011;13511;48.622;9.230;2023-05-07T00:03:08;8.98;;;8.05;;
25653;SDS011;13511;48.622;9.230;2023-05-07T00:05:34;8.90;;;7.93;;
25653;SDS011;13511;48.622;9.230;2023-05-07T00:08:01;8.40;;;7.80;;
25653;SDS011;13511;48.622;9.230;2023-05-07T00:10:27;9.15;;;8.45;;
25653;SDS011;13511;48.622;9.230;2023-05-07T00:12:52;8.50;;;7.80;;
25653;SDS011;13511;48.622;9.230;2023-05-07T00:15:19;8.90;;;8.00;;
25653;SDS011;13511;48.622;9.230;2023-05-07T00:17:45;8.60;;;7.82;;
25653;SDS011;13511;48.622;9.230;2023-05-07T00:20:11;8.80;;;7.93;;
25653;SDS011;13511;48.622;9.230;2023-05-07T00:22:37;9.40;;;8.25;;
25653;SDS011;13511;48.622;9.230;2023-05-07T00:25:03;8.70;;;8.07;;
25653;SDS011;13511;48.622;9.230;2023-05-07T00:27:30;9.75;;;8.43;;
25653;SDS011;13511;48.622;9.230;2023-05-07T00:29:56;8.63;;;8.15;;
25653;SDS011;13511;48.622;9.230;2023-05-07T00:32:22;8.90;;;8.07;;
25653;SDS011;13511;48.622;9.230;2023-05-07T00:34:48;8.93;;;8.18;;
25653;SDS011;13511;48.622;9.230;2023-05-07T00:37:14;8.88;;;8.38;;
25653;SDS011;13511;48.622;9.230;2023-05-07T00:39:40;11.00;;;9.88;;
25653;SDS011;13511;48.622;9.230;2023-05-07T00:42:06;9.05;;;8.40;;
25653;SDS011;13511;48.622;9.230;2023-05-07T00:44:33;9.40;;;8.70;;
25653;SDS011;13511;48.622;9.230;2023-05-07T00:46:59;10.00;;;8.70;;
25653;SDS011;13511;48.622;9.230;2023-05-07T00:49:31;9.23;;;8.43;;
25653;SDS011;13511;48.622;9.230;2023-05-07T00:52:00;9.07;;;8.20;;
25653;SDS011;13511;48.622;9.230;2023-05-07T00:54:26;9.40;;;8.48;;
25653;SDS011;13511;48.622;9.230;2023-05-07T00:56:52;9.50;;;8.55;;
25653;SDS011;13511;48.622;9.230;2023-05-07T00:59:18;9.23;;;8.43;;
25653;SDS011;13511;48.622;9.230;2023-05-07T01:01:44;9.98;;;8.57;;
25653;SDS011;13511;48.622;9.230;2023-05-07T01:04:10;8.95;;;8.38;;
25653;SDS011;13511;48.622;9.230;2023-05-07T01:06:36;9.10;;;8.50;;
25653;SDS011;13511;48.622;9.230;2023-05-07T01:09:02;9.48;;;8.77;;
25653;SDS011;13511;48.622;9.230;2023-05-07T01:11:29;8.93;;;8.32;;
25653;SDS011;13511;48.622;9.230;2023-05-07T01:13:55;9.45;;;8.68;;
25653;SDS011;13511;48.622;9.230;2023-05-07T01:16:22;9.20;;;8.30;;
25653;SDS011;13511;48.622;9.230;2023-05-07T01:18:48;9.60;;;8.80;;
25653;SDS011;13511;48.622;9.230;2023-05-07T01:21:14;9.57;;;8.63;;
25653;SDS011;13511;48.622;9.230;2023-05-07T01:23:41;9.75;;;8.93;;
25653;SDS011;13511;48.622;9.230;2023-05-07T01:26:08;9.00;;;8.38;;
25653;SDS011;13511;48.622;9.230;2023-05-07T01:28:34;9.32;;;8.52;;
25653;SDS011;13511;48.622;9.230;2023-05-07T01:31:00;9.48;;;8.85;;
25653;SDS011;13511;48.622;9.230;2023-05-07T01:33:26;9.52;;;8.73;;
25653;SDS011;13511;48.622;9.230;2023-05-07T01:35:56;8.95;;;8.23;;
25653;SDS011;13511;48.622;9.230;2023-05-07T01:38:25;9.23;;;8.38;;
25653;SDS011;13511;48.622;9.230;2023-05-07T01:40:51;10.45;;;9.40;;
25653;SDS011;13511;48.622;9.230;2023-05-07T01:43:17;9.23;;;8.48;;
25653;SDS011;13511;48.622;9.230;2023-05-07T01:45:43;8.75;;;8.05;;
25653;SDS011;13511;48.622;9.230;2023-05-07T01:48:11;8.20;;;7.65;;
25653;SDS011;13511;48.622;9.230;2023-05-07T01:50:38;8.65;;;7.95;;
25653;SDS011;13511;48.622;9.230;2023-05-07T01:53:05;9.45;;;8.75;;
25653;SDS011;13511;48.622;9.230;2023-05-07T01:55:31;8.75;;;8.15;;
25653;SDS011;13511;48.622;9.230;2023-05-07T01:57:57;9.38;;;8.63;;
25653;SDS011;13511;48.622;9.230;2023-05-07T02:00:23;9.27;;;8.55;;
25653;SDS011;13511;48.622;9.230;2023-05-07T02:02:49;8.95;;;8.40;;
25653;SDS011;13511;48.622;9.230;2023-05-07T02:05:15;10.63;;;8.88;;
25653;SDS011;13511;48.622;9.230;2023-05-07T02:07:41;9.20;;;8.40;;
25653;SDS011;13511;48.622;9.230;2023-05-07T02:10:07;9.73;;;9.02;;
25653;SDS011;13511;48.622;9.230;2023-05-07T02:12:33;8.55;;;7.75;;
25653;SDS011;13511;48.622;9.230;2023-05-07T02:14:59;8.82;;;8.13;;
25653;SDS011;13511;48.622;9.230;2023-05-07T02:17:25;8.70;;;8.02;;
25653;SDS011;13511;48.622;9.230;2023-05-07T02:19:51;9.10;;;8.30;;
25653;SDS011;13511;48.622;9.230;2023-05-07T02:22:17;8.63;;;8.20;;
25653;SDS011;13511;48.622;9.230;2023-05-07T02:24:43;8.65;;;8.15;;
25653;SDS011;13511;48.622;9.230;2023-05-07T02:27:09;8.80;;;8.00;;
25653;SDS011;13511;48.622;9.230;2023-05-07T02:29:35;8.98;;;8.18;;
25653;SDS011;13511;48.622;9.230;2023-05-07T02:32:01;9.23;;;8.45;;
25653;SDS011;13511;48.622;9.230;2023-05-07T02:34:27;9.60;;;8.68;;
25653;SDS011;13511;48.622;9.230;2023-05-07T02:36:53;8.38;;;7.93;;
25653;SDS011;13511;48.622;9.230;2023-05-07T02:39:20;9.15;;;8.45;;
25653;SDS011;13511;48.622;9.230;2023-05-07T02:41:46;9.10;;;8.25;;
25653;SDS011;13511;48.622;9.230;2023-05-07T02:44:12;9.85;;;7.97;;
25653;SDS011;13511;48.622;9.230;2023-05-07T02:46:38;9.55;;;8.65;;
25653;SDS011;13511;48.622;9.230;2023-05-07T02:49:04;8.52;;;7.82;;
25653;SDS011;13511;48.622;9.230;2023-05-07T02:51:31;12.45;;;8.57;;
25653;SDS011;13511;48.622;9.230;2023-05-07T02:53:57;8.15;;;7.65;;
25653;SDS011;13511;48.622;9.230;2023-05-07T02:56:26;8.35;;;7.93;;
25653;SDS011;13511;48.622;9.230;2023-05-07T02:58:52;12.10;;;8.38;;
25653;SDS011;13511;48.622;9.230;2023-05-07T03:01:18;9.50;;;8.77;;
25653;SDS011;13511;48.622;9.230;2023-05-07T03:03:45;13.43;;;8.63;;
25653;SDS011;13511;48.622;9.230;2023-05-07T03:06:11;9.30;;;8.43;;
25653;SDS011;13511;48.622;9.230;2023-05-07T03:08:37;9.27;;;8.40;;
25653;SDS011;13511;48.622;9.230;2023-05-07T03:11:03;9.07;;;8.00;;
25653;SDS011;13511;48.622;9.230;2023-05-07T03:13:29;9.00;;;8.30;;
25653;SDS011;13511;48.622;9.230;2023-05-07T03:15:55;9.23;;;8.32;;
25653;SDS011;13511;48.622;9.230;2023-05-07T03:18:21;10.02;;;8.88;;
25653;SDS011;13511;48.622;9.230;2023-05-07T03:20:48;8.23;;;7.55;;
25653;SDS011;13511;48.622;9.230;2023-05-07T03:23:14;8.40;;;7.80;;
25653;SDS011;13511;48.622;9.230;2023-05-07T03:25:40;9.90;;;8.98;;
25653;SDS011;13511;48.622;9.230;2023-05-07T03:28:06;9.50;;;8.38;;
25653;SDS011;13511;48.622;9.230;2023-05-07T03:30:32;9.68;;;8.80;;
25653;SDS011;13511;48.622;9.230;2023-05-07T03:32:58;8.68;;;8.00;;
25653;SDS011;13511;48.622;9.230;2023-05-07T03:35:24;9.40;;;8.50;;
25653;SDS011;13511;48.622;9.230;2023-05-07T03:37:50;8.80;;;8.30;;
25653;SDS011;13511;48.622;9.230;2023-05-07T03:40:16;8.60;;;8.00;;
25653;SDS011;13511;48.622;9.230;2023-05-07T03:42:42;8.85;;;8.00;;
25653;SDS011;13511;48.622;9.230;2023-05-07T03:45:08;8.75;;;8.00;;
25653;SDS011;13511;48.622;9.230;2023-05-07T03:47:35;9.10;;;8.50;;
25653;SDS011;13511;48.622;9.230;2023-05-07T03:50:01;8.80;;;8.07;;
25653;SDS011;13511;48.622;9.230;2023-05-07T03:52:27;8.32;;;7.50;;
25653;SDS011;13511;48.622;9.230;2023-05-07T03:54:53;8.63;;;7.88;;
25653;SDS011;13511;48.622;9.230;2023-05-07T03:57:19;8.52;;;7.93;;
25653;SDS011;13511;48.622;9.230;2023-05-07T03:59:45;9.63;;;8.40;;
25653;SDS011;13511;48.622;9.230;2023-05-07T04:02:11;8.80;;;7.97;;
25653;SDS011;13511;48.622;9.230;2023-05-07T04:04:37;8.65;;;7.90;;
25653;SDS011;13511;48.622;9.230;2023-05-07T04:07:03;8.88;;;8.05;;
25653;SDS011;13511;48.622;9.230;2023-05-07T04:09:29;7.95;;;7.30;;
25653;SDS011;13511;48.622;9.230;2023-05-07T04:11:55;8.55;;;7.75;;
25653;SDS011;13511;48.622;9.230;2023-05-07T04:14:21;8.48;;;7.68;;
25653;SDS011;13511;48.622;9.230;2023-05-07T04:16:47;8.43;;;7.82;;
25653;SDS011;13511;48.622;9.230;2023-05-07T04:19:13;8.50;;;7.60;;
25653;SDS011;13511;48.622;9.230;2023-05-07T04:21:39;8.73;;;7.88;;
25653;SDS011;13511;48.622;9.230;2023-05-07T04:24:05;8.20;;;7.20;;
25653;SDS011;13511;48.622;9.230;2023-05-07T04:26:31;8.23;;;7.00;;
25653;SDS011;13511;48.622;9.230;2023-05-07T04:28:57;9.90;;;8.15;;
25653;SDS011;13511;48.622;9.230;2023-05-07T04:31:24;8.07;;;7.38;;
25653;SDS011;13511;48.622;9.230;2023-05-07T04:33:50;8.32;;;7.72;;
25653;SDS011;13511;48.622;9.230;2023-05-07T04:36:16;8.35;;;7.30;;
25653;SDS011;13511;48.622;9.230;2023-05-07T04:38:42;13.98;;;7.82;;
25653;SDS011;13511;48.622;9.230;2023-05-07T04:41:09;8.50;;;7.70;;
25653;SDS011;13511;48.622;9.230;2023-05-07T04:43:35;7.93;;;7.45;;
25653;SDS011;13511;48.622;9.230;2023-05-07T04:46:01;9.07;;;7.43;;
25653;SDS011;13511;48.622;9.230;2023-05-07T04:48:27;8.82;;;8.23;;
25653;SDS011;13511;48.622;9.230;2023-05-07T04:50:53;7.38;;;6.90;;
25653;SDS011;13511;48.622;9.230;2023-05-07T04:53:20;8.73;;;7.00;;
25653;SDS011;13511;48.622;9.230;2023-05-07T04:55:46;8.30;;;7.47;;
25653;SDS011;13511;48.622;9.230;2023-05-07T04:58:12;8.45;;;7.65;;
25653;SDS011;13511;48.622;9.230;2023-05-07T05:00:39;7.93;;;7.32;;
25653;SDS011;13511;48.622;9.230;2023-05-07T05:03:08;7.63;;;7.07;;
25653;SDS011;13511;48.622;9.230;2023-05-07T05:05:34;9.05;;;6.85;;
25653;SDS011;13511;48.622;9.230;2023-05-07T05:08:00;8.18;;;7.47;;
25653;SDS011;13511;48.622;9.230;2023-05-07T05:10:26;7.60;;;7.10;;
25653;SDS011;13511;48.622;9.230;2023-05-07T05:12:52;8.38;;;7.47;;
25653;SDS011;13511;48.622;9.230;2023-05-07T05:15:18;8.07;;;7.47;;
25653;SDS011;13511;48.622;9.230;2023-05-07T05:17:44;8.45;;;7.80;;
25653;SDS011;13511;48.622;9.230;2023-05-07T05:20:10;8.18;;;7.32;;
25653;SDS011;13511;48.622;9.230;2023-05-07T05:22:36;7.78;;;7.28;;
25653;SDS011;13511;48.622;9.230;2023-05-07T05:25:02;8.02;;;7.40;;
25653;SDS011;13511;48.622;9.230;2023-05-07T05:27:29;7.85;;;7.35;;
25653;SDS011;13511;48.622;9.230;2023-05-07T05:29:55;7.78;;;7.20;;
25653;SDS011;13511;48.622;9.230;2023-05-07T05:32:21;8.02;;;7.25;;
25653;SDS011;13511;48.622;9.230;2023-05-07T05:34:47;7.63;;;7.03;;
25653;SDS011;13511;48.622;9.230;2023-05-07T05:37:13;7.38;;;6.85;;
25653;SDS011;13511;48.622;9.230;2023-05-07T05:39:39;7.60;;;7.07;;
25653;SDS011;13511;48.622;9.230;2023-05-07T05:42:05;7.03;;;6.63;;
25653;SDS011;13511;48.622;9.230;2023-05-07T05:44:31;7.28;;;6.38;;
25653;SDS011;13511;48.622;9.230;2023-05-07T05:46:57;6.88;;;6.47;;
25653;SDS011;13511;48.622;9.230;2023-05-07T05:49:24;7.15;;;6.50;;
25653;SDS011;13511;48.622;9.230;2023-05-07T05:51:50;7.75;;;7.00;;
25653;SDS011;13511;48.622;9.230;2023-05-07T05:54:16;6.70;;;6.30;;
25653;SDS011;13511;48.622;9.230;2023-05-07T05:56:42;8.43;;;6.30;;
25653;SDS011;13511;48.622;9.230;2023-05-07T05:59:08;6.90;;;6.50;;
25653;SDS011;13511;48.622;9.230;2023-05-07T06:01:34;6.95;;;6.38;;
25653;SDS011;13511;48.622;9.230;2023-05-07T06:04:00;11.80;;;6.05;;
25653;SDS011;13511;48.622;9.230;2023-05-07T06:06:26;6.75;;;6.20;;
25653;SDS011;13511;48.622;9.230;2023-05-07T06:08:53;6.72;;;6.32;;
25653;SDS011;13511;48.622;9.230;2023-05-07T06:11:19;7.28;;;6.68;;
25653;SDS011;13511;48.622;9.230;2023-05-07T06:13:45;7.15;;;6.55;;
25653;SDS011;13511;48.622;9.230;2023-05-07T06:16:11;7.13;;;6.60;;
25653;SDS011;13511;48.622;9.230;2023-05-07T06:18:37;6.95;;;6.50;;
25653;SDS011;13511;48.622;9.230;2023-05-07T06:21:03;6.93;;;6.03;;
25653;SDS011;13511;48.622;9.230;2023-05-07T06:23:29;6.85;;;6.45;;
25653;SDS011;13511;48.622;9.230;2023-05-07T06:25:55;6.47;;;6.10;;
25653;SDS011;13511;48.622;9.230;2023-05-07T06:28:21;6.60;;;6.10;;
25653;SDS011;13511;48.622;9.230;2023-05-07T06:30:47;6.82;;;6.22;;
25653;SDS011;13511;48.622;9.230;2023-05-07T06:33:15;6.15;;;5.85;;
25653;SDS011;13511;48.622;9.230;2023-05-07T06:35:41;6.30;;;5.80;;
25653;SDS011;13511;48.622;9.230;2023-05-07T06:38:07;6.78;;;6.10;;
25653;SDS011;13511;48.622;9.230;2023-05-07T06:40:33;6.32;;;5.97;;
25653;SDS011;13511;48.622;9.230;2023-05-07T06:42:58;6.65;;;6.05;;
25653;SDS011;13511;48.622;9.230;2023-05-07T06:45:25;6.57;;;6.18;;
25653;SDS011;13511;48.622;9.230;2023-05-07T06:47:51;6.57;;;5.97;;
25653;SDS011;13511;48.622;9.230;2023-05-07T06:50:17;6.88;;;6.25;;
25653;SDS011;13511;48.622;9.230;2023-05-07T06:52:43;6.40;;;5.90;;
25653;SDS011;13511;48.622;9.230;2023-05-07T06:55:09;6.97;;;6.50;;
25653;SDS011;13511;48.622;9.230;2023-05-07T06:57:36;6.68;;;6.28;;
25653;SDS011;13511;48.622;9.230;2023-05-07T07:00:02;6.78;;;6.35;;
25653;SDS011;13511;48.622;9.230;2023-05-07T07:02:29;7.10;;;6.45;;
25653;SDS011;13511;48.622;9.230;2023-05-07T07:04:55;6.47;;;6.07;;
25653;SDS011;13511;48.622;9.230;2023-05-07T07:07:21;7.07;;;6.55;;
25653;SDS011;13511;48.622;9.230;2023-05-07T07:09:47;6.90;;;6.43;;
25653;SDS011;13511;48.622;9.230;2023-05-07T07:12:13;7.85;;;7.18;;
25653;SDS011;13511;48.622;9.230;2023-05-07T07:14:39;7.35;;;6.75;;
25653;SDS011;13511;48.622;9.230;2023-05-07T07:17:05;7.50;;;7.10;;
25653;SDS011;13511;48.622;9.230;2023-05-07T07:19:31;6.97;;;6.57;;
25653;SDS011;13511;48.622;9.230;2023-05-07T07:21:57;7.28;;;6.78;;
25653;SDS011;13511;48.622;9.230;2023-05-07T07:24:23;7.32;;;6.80;;
25653;SDS011;13511;48.622;9.230;2023-05-07T07:26:49;8.45;;;7.80;;
25653;SDS011;13511;48.622;9.230;2023-05-07T07:29:15;7.80;;;7.30;;
25653;SDS011;13511;48.622;9.230;2023-05-07T07:31:41;8.38;;;7.68;;
25653;SDS011;13511;48.622;9.230;2023-05-07T07:34:07;8.10;;;7.60;;
25653;SDS011;13511;48.622;9.230;2023-05-07T07:36:33;8.38;;;7.78;;
25653;SDS011;13511;48.622;9.230;2023-05-07T07:38:59;8.75;;;7.72;;
25653;SDS011;13511;48.622;9.230;2023-05-07T07:41:25;8.48;;;7.97;;
25653;SDS011;13511;48.622;9.230;2023-05-07T07:43:51;8.65;;;8.02;;
25653;SDS011;13511;48.622;9.230;2023-05-07T07:46:17;9.27;;;8.55;;
25653;SDS011;13511;48.622;9.230;2023-05-07T07:48:43;9.18;;;8.30;;
25653;SDS011;13511;48.622;9.230;2023-05-07T07:51:10;9.10;;;8.50;;
25653;SDS011;13511;48.622;9.230;2023-05-07T07:53:36;10.05;;;8.88;;
25653;SDS011;13511;48.622;9.230;2023-05-07T07:56:02;9.02;;;8.18;;
25653;SDS011;13511;48.622;9.230;2023-05-07T07:58:28;8.45;;;7.75;;
25653;SDS011;13511;48.622;9.230;2023-05-07T08:00:54;9.32;;;8.45;;
25653;SDS011;13511;48.622;9.230;2023-05-07T08:03:21;8.32;;;7.57;;
25653;SDS011;13511;48.622;9.230;2023-05-07T08:05:47;8.63;;;8.02;;
25653;SDS011;13511;48.622;9.230;2023-05-07T08:08:16;8.20;;;7.60;;
25653;SDS011;13511;48.622;9.230;2023-05-07T08:10:42;9.45;;;8.20;;
25653;SDS011;13511;48.622;9.230;2023-05-07T08:13:08;8.60;;;8.05;;
25653;SDS011;13511;48.622;9.230;2023-05-07T08:15:34;8.40;;;7.70;;
25653;SDS011;13511;48.622;9.230;2023-05-07T08:18:01;8.40;;;7.80;;
25653;SDS011;13511;48.622;9.230;2023-05-07T08:20:28;8.00;;;7.45;;
25653;SDS011;13511;48.622;9.230;2023-05-07T08:22:54;8.00;;;7.38;;
25653;SDS011;13511;48.622;9.230;2023-05-07T08:25:20;7.70;;;7.03;;
25653;SDS011;13511;48.622;9.230;2023-05-07T08:27:46;7.82;;;7.18;;
25653;SDS011;13511;48.622;9.230;2023-05-07T08:30:12;8.45;;;7.85;;
25653;SDS011;13511;48.622;9.230;2023-05-07T08:32:38;8.50;;;7.75;;
25653;SDS011;13511;48.622;9.230;2023-05-07T08:35:05;8.60;;;8.00;;
25653;SDS011;13511;48.622;9.230;2023-05-07T08:37:31;8.32;;;7.45;;
25653;SDS011;13511;48.622;9.230;2023-05-07T08:39:57;8.05;;;7.35;;
25653;SDS011;13511;48.622;9.230;2023-05-07T08:42:23;8.48;;;7.85;;
25653;SDS011;13511;48.622;9.230;2023-05-07T08:44:50;9.23;;;8.27;;
25653;SDS011;13511;48.622;9.230;2023-05-07T08:47:20;7.97;;;7.28;;
25653;SDS011;13511;48.622;9.230;2023-05-07T08:49:48;7.90;;;7.50;;
25653;SDS011;13511;48.622;9.230;2023-05-07T08:52:15;8.60;;;7.82;;
25653;SDS011;13511;48.622;9.230;2023-05-07T08:54:41;8.70;;;7.93;;
25653;SDS011;13511;48.622;9.230;2023-05-07T08:57:07;7.43;;;7.03;;
25653;SDS011;13511;48.622;9.230;2023-05-07T08:59:33;7.50;;;7.10;;
25653;SDS011;13511;48.622;9.230;2023-05-07T09:02:00;6.72;;;6.38;;
25653;SDS011;13511;48.622;9.230;2023-05-07T09:04:27;7.53;;;7.13;;
25653;SDS011;13511;48.622;9.230;2023-05-07T09:06:53;6.80;;;6.30;;
25653;SDS011;13511;48.622;9.230;2023-05-07T09:09:21;7.47;;;7.07;;
25653;SDS011;13511;48.622;9.230;2023-05-07T09:11:47;10.93;;;6.72;;
25653;SDS011;13511;48.622;9.230;2023-05-07T09:14:13;7.30;;;6.80;;
25653;SDS011;13511;48.622;9.230;2023-05-07T09:16:39;7.10;;;6.70;;
25653;SDS011;13511;48.622;9.230;2023-05-07T09:19:05;6.55;;;6.15;;
25653;SDS011;13511;48.622;9.230;2023-05-07T09:21:31;7.10;;;6.60;;
25653;SDS011;13511;48.622;9.230;2023-05-07T09:23:57;6.78;;;6.35;;
25653;SDS011;13511;48.622;9.230;2023-05-07T09:26:24;7.13;;;6.68;;
25653;SDS011;13511;48.622;9.230;2023-05-07T09:28:50;7.15;;;6.60;;
25653;SDS011;13511;48.622;9.230;2023-05-07T09:31:16;6.97;;;6.38;;
25653;SDS011;13511;48.622;9.230;2023-05-07T09:33:42;6.75;;;6.10;;
25653;SDS011;13511;48.622;9.230;2023-05-07T09:36:08;6.35;;;5.88;;
25653;SDS011;13511;48.622;9.230;2023-05-07T09:38:35;6.93;;;6.32;;
25653;SDS011;13511;48.622;9.230;2023-05-07T09:41:05;6.03;;;5.65;;
25653;SDS011;13511;48.622;9.230;2023-05-07T09:43:32;6.05;;;5.65;;
25653;SDS011;13511;48.622;9.230;2023-05-07T09:46:00;6.30;;;6.00;;
25653;SDS011;13511;48.622;9.230;2023-05-07T09:48:28;6.35;;;5.80;;
25653;SDS011;13511;48.622;9.230;2023-05-07T09:50:55;6.53;;;6.13;;
25653;SDS011;13511;48.622;9.230;2023-05-07T09:53:25;7.25;;;6.65;;
25653;SDS011;13511;48.622;9.230;2023-05-07T09:55:51;5.97;;;5.57;;
25653;SDS011;13511;48.622;9.230;2023-05-07T09:58:18;6.15;;;5.70;;
25653;SDS011;13511;48.622;9.230;2023-05-07T10:00:44;6.20;;;5.68;;
25653;SDS011;13511;48.622;9.230;2023-05-07T10:03:11;5.78;;;5.47;;
25653;SDS011;13511;48.622;9.230;2023-05-07T10:05:39;5.95;;;5.60;;
25653;SDS011;13511;48.622;9.230;2023-05-07T10:08:05;6.50;;;5.95;;
25653;SDS011;13511;48.622;9.230;2023-05-07T10:10:32;5.80;;;5.50;;
25653;SDS011;13511;48.622;9.230;2023-05-07T10:12:59;5.90;;;5.40;;
25653;SDS011;13511;48.622;9.230;2023-05-07T10:15:26;6.20;;;5.32;;
25653;SDS011;13511;48.622;9.230;2023-05-07T10:17:52;5.53;;;5.32;;
25653;SDS011;13511;48.622;9.230;2023-05-07T10:20:19;5.07;;;4.85;;
25653;SDS011;13511;48.622;9.230;2023-05-07T10:22:45;5.78;;;5.30;;
25653;SDS011;13511;48.622;9.230;2023-05-07T10:25:29;6.00;;;5.70;;
25653;SDS011;13511;48.622;9.230;2023-05-07T10:27:57;5.32;;;5.00;;
25653;SDS011;13511;48.622;9.230;2023-05-07T10:33:15;5.70;;;5.20;;
25653;SDS011;13511;48.622;9.230;2023-05-07T10:35:43;4.90;;;4.70;;
25653;SDS011;13511;48.622;9.230;2023-05-07T10:38:09;5.60;;;5.30;;
25653;SDS011;13511;48.622;9.230;2023-05-07T10:40:35;5.57;;;5.18;;
25653;SDS011;13511;48.622;9.230;2023-05-07T10:43:02;5.00;;;4.72;;
25653;SDS011;13511;48.622;9.230;2023-05-07T10:45:30;5.30;;;4.95;;
25653;SDS011;13511;48.622;9.230;2023-05-07T10:50:31;5.30;;;4.93;;
25653;SDS011;13511;48.622;9.230;2023-05-07T10:55:42;4.80;;;4.60;;
25653;SDS011;13511;48.622;9.230;2023-05-07T11:00:47;4.90;;;4.60;;
25653;SDS011;13511;48.622;9.230;2023-05-07T11:03:13;4.93;;;4.63;;
25653;SDS011;13511;48.622;9.230;2023-05-07T11:05:40;5.10;;;4.80;;
25653;SDS011;13511;48.622;9.230;2023-05-07T11:08:06;4.70;;;4.50;;
25653;SDS011;13511;48.622;9.230;2023-05-07T11:14:02;5.03;;;4.70;;
25653;SDS011;13511;48.622;9.230;2023-05-07T11:16:04;4.60;;;4.30;;
25653;SDS011;13511;48.622;9.230;2023-05-07T11:18:45;4.70;;;4.35;;
25653;SDS011;13511;48.622;9.230;2023-05-07T11:21:11;4.65;;;4.35;;
25653;SDS011;13511;48.622;9.230;2023-05-07T11:26:09;4.78;;;4.50;;
25653;SDS011;13511;48.622;9.230;2023-05-07T11:28:36;5.32;;;4.75;;
25653;SDS011;13511;48.622;9.230;2023-05-07T11:31:02;5.05;;;4.57;;
25653;SDS011;13511;48.622;9.230;2023-05-07T11:33:32;5.10;;;4.60;;
25653;SDS011;13511;48.622;9.230;2023-05-07T11:35:58;5.07;;;4.68;;
25653;SDS011;13511;48.622;9.230;2023-05-07T11:38:25;5.25;;;4.90;;
25653;SDS011;13511;48.622;9.230;2023-05-07T11:40:51;5.15;;;4.78;;
25653;SDS011;13511;48.622;9.230;2023-05-07T11:43:17;5.18;;;4.78;;
25653;SDS011;13511;48.622;9.230;2023-05-07T11:45:44;5.10;;;4.82;;
25653;SDS011;13511;48.622;9.230;2023-05-07T11:48:12;5.10;;;4.75;;
25653;SDS011;13511;48.622;9.230;2023-05-07T11:51:00;4.85;;;4.65;;
25653;SDS011;13511;48.622;9.230;2023-05-07T11:53:25;4.82;;;4.50;;
25653;SDS011;13511;48.622;9.230;2023-05-07T11:55:57;4.90;;;4.70;;
25653;SDS011;13511;48.622;9.230;2023-05-07T11:58:24;5.03;;;4.80;;
25653;SDS011;13511;48.622;9.230;2023-05-07T12:00:53;4.90;;;4.63;;
25653;SDS011;13511;48.622;9.230;2023-05-07T12:03:20;4.90;;;4.70;;
25653;SDS011;13511;48.622;9.230;2023-05-07T12:05:46;5.20;;;4.90;;
25653;SDS011;13511;48.622;9.230;2023-05-07T12:08:16;5.30;;;5.00;;
25653;SDS011;13511;48.622;9.230;2023-05-07T12:10:42;6.50;;;6.10;;
25653;SDS011;13511;48.622;9.230;2023-05-07T12:13:15;5.03;;;4.78;;
25653;SDS011;13511;48.622;9.230;2023-05-07T12:15:41;6.03;;;4.90;;
25653;SDS011;13511;48.622;9.230;2023-05-07T12:18:08;4.90;;;4.60;;
25653;SDS011;13511;48.622;9.230;2023-05-07T12:20:34;5.35;;;5.03;;
25653;SDS011;13511;48.622;9.230;2023-05-07T12:23:01;5.18;;;4.80;;
25653;SDS011;13511;48.622;9.230;2023-05-07T12:25:29;5.13;;;4.72;;
25653;SDS011;13511;48.622;9.230;2023-05-07T12:27:56;4.88;;;4.68;;
25653;SDS011;13511;48.622;9.230;2023-05-07T12:30:23;4.75;;;4.55;;
25653;SDS011;13511;48.622;9.230;2023-05-07T12:32:52;4.68;;;4.30;;
25653;SDS011;13511;48.622;9.230;2023-05-07T12:35:25;4.65;;;4.53;;
25653;SDS011;13511;48.622;9.230;2023-05-07T12:37:58;4.88;;;4.57;;
25653;SDS011;13511;48.622;9.230;2023-05-07T12:43:24;13.27;;;4.72;;
25653;SDS011;13511;48.622;9.230;2023-05-07T12:48:16;5.63;;;5.28;;
25653;SDS011;13511;48.622;9.230;2023-05-07T12:50:42;5.18;;;4.75;;
25653;SDS011;13511;48.622;9.230;2023-05-07T12:53:09;7.03;;;4.90;;
25653;SDS011;13511;48.622;9.230;2023-05-07T12:55:55;5.70;;;5.18;;
25653;SDS011;13511;48.622;9.230;2023-05-07T13:00:51;6.07;;;5.43;;
25653;SDS011;13511;48.622;9.230;2023-05-07T13:03:24;5.05;;;4.85;;
25653;SDS011;13511;48.622;9.230;2023-05-07T13:05:50;5.28;;;4.97;;
25653;SDS011;13511;48.622;9.230;2023-05-07T13:08:23;5.50;;;5.20;;
25653;SDS011;13511;48.622;9.230;2023-05-07T13:10:49;5.75;;;5.35;;
25653;SDS011;13511;48.622;9.230;2023-05-07T13:13:15;5.45;;;5.15;;
25653;SDS011;13511;48.622;9.230;2023-05-07T13:15:41;5.57;;;5.00;;
25653;SDS011;13511;48.622;9.230;2023-05-07T13:18:07;5.63;;;4.97;;
25653;SDS011;13511;48.622;9.230;2023-05-07T13:20:35;5.53;;;5.22;;
25653;SDS011;13511;48.622;9.230;2023-05-07T13:23:01;5.40;;;5.10;;
25653;SDS011;13511;48.622;9.230;2023-05-07T13:25:29;6.95;;;6.45;;
25653;SDS011;13511;48.622;9.230;2023-05-07T13:27:56;12.90;;;7.10;;
25653;SDS011;13511;48.622;9.230;2023-05-07T13:30:22;9.13;;;8.23;;
25653;SDS011;13511;48.622;9.230;2023-05-07T13:32:48;9.77;;;8.85;;
25653;SDS011;13511;48.622;9.230;2023-05-07T13:35:15;10.23;;;9.32;;
25653;SDS011;13511;48.622;9.230;2023-05-07T13:37:42;10.90;;;10.00;;
25653;SDS011;13511;48.622;9.230;2023-05-07T13:40:08;10.02;;;9.40;;
25653;SDS011;13511;48.622;9.230;2023-05-07T13:42:34;12.23;;;10.20;;
25653;SDS011;13511;48.622;9.230;2023-05-07T13:45:00;11.45;;;9.80;;
25653;SDS011;13511;48.622;9.230;2023-05-07T13:47:29;10.73;;;9.85;;
25653;SDS011;13511;48.622;9.230;2023-05-07T13:49:54;9.57;;;8.85;;
25653;SDS011;13511;48.622;9.230;2023-05-07T13:52:20;9.25;;;8.40;;
25653;SDS011;13511;48.622;9.230;2023-05-07T13:54:46;10.45;;;9.40;;
25653;SDS011;13511;48.622;9.230;2023-05-07T13:57:12;10.73;;;9.45;;
25653;SDS011;13511;48.622;9.230;2023-05-07T13:59:38;9.93;;;9.13;;
25653;SDS011;13511;48.622;9.230;2023-05-07T14:02:05;10.25;;;9.32;;
25653;SDS011;13511;48.622;9.230;2023-05-07T14:04:31;9.73;;;8.90;;
25653;SDS011;13511;48.622;9.230;2023-05-07T14:06:57;10.77;;;8.30;;
25653;SDS011;13511;48.622;9.230;2023-05-07T14:09:23;9.10;;;8.35;;
25653;SDS011;13511;48.622;9.230;2023-05-07T14:11:49;9.40;;;8.68;;
25653;SDS011;13511;48.622;9.230;2023-05-07T14:14:19;9.50;;;8.60;;
25653;SDS011;13511;48.622;9.230;2023-05-07T14:16:45;10.80;;;9.40;;
25653;SDS011;13511;48.622;9.230;2023-05-07T14:19:12;10.18;;;9.07;;
25653;SDS011;13511;48.622;9.230;2023-05-07T14:21:44;12.82;;;9.55;;
25653;SDS011;13511;48.622;9.230;2023-05-07T14:24:10;9.90;;;9.20;;
25653;SDS011;13511;48.622;9.230;2023-05-07T14:26:36;13.43;;;8.20;;
25653;SDS011;13511;48.622;9.230;2023-05-07T14:29:02;9.77;;;8.77;;
25653;SDS011;13511;48.622;9.230;2023-05-07T14:31:29;8.80;;;7.93;;
25653;SDS011;13511;48.622;9.230;2023-05-07T14:33:55;12.43;;;8.80;;
25653;SDS011;13511;48.622;9.230;2023-05-07T14:36:23;8.75;;;7.97;;
25653;SDS011;13511;48.622;9.230;2023-05-07T14:38:51;8.95;;;8.05;;
25653;SDS011;13511;48.622;9.230;2023-05-07T14:41:17;7.93;;;7.43;;
25653;SDS011;13511;48.622;9.230;2023-05-07T14:43:43;7.90;;;7.30;;
25653;SDS011;13511;48.622;9.230;2023-05-07T14:46:15;8.00;;;7.07;;
25653;SDS011;13511;48.622;9.230;2023-05-07T14:48:41;7.80;;;7.22;;
25653;SDS011;13511;48.622;9.230;2023-05-07T14:51:07;10.02;;;8.45;;
25653;SDS011;13511;48.622;9.230;2023-05-07T14:53:33;12.38;;;8.85;;
25653;SDS011;13511;48.622;9.230;2023-05-07T14:55:59;11.40;;;8.80;;
25653;SDS011;13511;48.622;9.230;2023-05-07T14:58:25;9.27;;;8.38;;
25653;SDS011;13511;48.622;9.230;2023-05-07T15:00:51;8.27;;;7.53;;
25653;SDS011;13511;48.622;9.230;2023-05-07T15:03:17;8.90;;;8.02;;
25653;SDS011;13511;48.622;9.230;2023-05-07T15:05:43;12.23;;;9.32;;